Ardenvoir, WA (98811)

10:03 AM PST on February 13, 2016 (GMT -0800)
Entiat Valley | | Change Station
CLOSE
Current Station
Personal Weather Station
Location: Entiat, WA
Elevation: 1050 ft
Nearby Weather Stations
Active Advisory: Special Weather Statement

Elev 1050 ft 47.70 °N, 120.33 °W | Updated 3 seconds ago

Mostly Cloudy
Mostly Cloudy
36.7 °F
Feels Like 37 °F
N
0.0
Wind Variable Wind from SE
Gusts 3.0 mph

Today
High -- | Low -- °F
--% Chance of Precip.
Yesterday
High -- | Low -- °F
Precip. -- in
Pressure 30.27 in
Visibility 10.0 miles
Clouds Scattered Clouds 100 ft
Windchill 37 °F
Dew Point 35 °F
Humidity 95%
Rainfall 0.00 in
Snow Depth Not available.
7:11 AM 5:20 PM
Waxing Crescent, 32% visible
METAR KEAT 131755Z AUTO 00000KT 10SM SCT001 02/01 A3024 RMK AO2 SLP249 I6004 T00170011 10017 21006 51014 $
Pressure 30.27 in
Visibility 10.0 miles
Clouds Scattered Clouds 100 ft
Windchill 37 °F
Dew Point 35 °F
Humidity 95%
Rainfall 0.00 in
Snow Depth Not available.
7:11 AM 5:20 PM
Waxing Crescent, 32% visible
METAR KEAT 131755Z AUTO 00000KT 10SM SCT001 02/01 A3024 RMK AO2 SLP249 I6004 T00170011 10017 21006 51014 $

10-Day Weather Forecast

Almanac

Astronomy

Feb. 13, 2016 Rise Set
Actual Time
Civil Twilight
Nautical Twilight
Astronomical Twilight
Moon
Length of Visible Light
Length of Day
Tomorrow will be .
, % of the Moon is Illuminated

Today's Extremes

State Highs State Lows

Community

WunderPhotos

Upload Photos

1,892,631 photos uploaded!

WunderBlog® & News

Nearby

Air Quality

  Air Quality AQ Index Pollutant
Not available.

Snow Depth

Station Depth Elevation

Earthquake Activity

City Distance Mag. Time & Date
Minimum magnitude displayed is 2.5.

Coastal Water Temperatures

Place Temperature

Stations

Nearby Weather Stations

Station Location Temp. Windchill Dew Point Humidity Wind Precip. Elev Updated Type
                   

Watches & Warnings

Special Weather Statement
Issued: 10:01 AM PST Feb. 13, 2016 – National Weather Service

... Air stagnation advisory will expire at 10 am PST this
morning for the upper Columbia Basin... Waterville Plateau...
northeast Washington mountains... Okanogan Highlands... and
Wenatchee and Moses Lake areas...

Widespread precipitation Friday night... a bit of wind today... and
more precipitation tonight will improve air movement over much of
eastern Washington and portions of central Washington.